Time;durP1;ratioP1;P1;durP2;ratioP2;P2;SDS_P1;SDS_P2;PMS_P1;PMS_P2;Temp;Humidity;BMP_temperature;BMP_pressure;BME280_temperature;BME280_humidity;BME280_pressure;Samples;Min_cycle;Max_cycle;Signal;HPM_P1;HPM_P2
2021/09/30 00:00:46;;;;;;;27.30;17.27;;;;;;;;;;4966565;28;20256;-68
2021/09/30 00:03:13;;;;;;;25.40;17.27;;;;;;;;;;4965325;28;20042;-67
2021/09/30 00:05:40;;;;;;;32.13;17.65;;;;;;;;;;4966284;28;20059;-67
2021/09/30 00:08:07;;;;;;;24.98;16.65;;;;;;;;;;4963942;28;20137;-67
2021/09/30 00:10:33;;;;;;;26.08;18.65;;;;;;;;;;4965240;28;20078;-67
2021/09/30 00:13:36;;;;;;;28.58;16.80;;;;;;;;;;4963490;28;20511;-67
2021/09/30 00:32:24;;;;;;;27.40;17.80;;;;;;;;;;4971013;28;20070;-67
2021/09/30 00:35:00;;;;;;;27.63;18.13;;;;;;;;;;4965737;28;20141;-67
2021/09/30 00:50:30;;;;;;;24.45;15.20;;;;;;;;;;4964478;28;20689;-67
2021/09/30 00:56:00;;;;;;;29.75;16.60;;;;;;;;;;4963183;28;20142;-68
2021/09/30 01:27:40;;;;;;;31.65;18.35;;;;;;;;;;4967108;28;20598;-67
2021/09/30 02:59:11;;;;;;;37.05;17.58;;;;;;;;;;4958616;28;20162;-67
2021/09/30 03:01:40;;;;;;;36.85;17.80;;;;;;;;;;4960093;28;20058;-67
2021/09/30 03:04:07;;;;;;;36.70;17.13;;;;;;;;;;4965082;28;20077;-67
2021/09/30 03:06:33;;;;;;;41.30;16.60;;;;;;;;;;4957548;28;20070;-68
2021/09/30 03:09:06;;;;;;;36.00;15.82;;;;;;;;;;4960520;28;20333;-67
2021/09/30 03:11:36;;;;;;;37.65;17.45;;;;;;;;;;4963521;28;20151;-67
2021/09/30 03:14:03;;;;;;;32.60;13.65;;;;;;;;;;4964094;28;20138;-67
2021/09/30 03:19:00;;;;;;;;;;;;;;;;;;4965477;28;20546;-67
2021/09/30 03:24:15;;;;;;;27.92;12.95;;;;;;;;;;4963915;28;20074;-67
2021/09/30 03:26:42;;;;;;;30.95;15.23;;;;;;;;;;4961194;28;20051;-67
2021/09/30 03:29:09;;;;;;;31.75;14.40;;;;;;;;;;4963128;28;20145;-67
2021/09/30 03:31:35;;;;;;;33.28;15.18;;;;;;;;;;4962487;28;20078;-68
2021/09/30 03:34:02;;;;;;;33.20;15.98;;;;;;;;;;4961579;28;20047;-68
2021/09/30 03:36:28;;;;;;;33.10;16.30;;;;;;;;;;4962418;28;20134;-68
2021/09/30 03:38:55;;;;;;;36.15;15.50;;;;;;;;;;4959920;28;20133;-67
2021/09/30 03:41:22;;;;;;;34.03;15.32;;;;;;;;;;4964473;28;20054;-68
2021/09/30 03:43:48;;;;;;;39.03;15.88;;;;;;;;;;4959725;28;20051;-67
2021/09/30 03:46:15;;;;;;;37.05;14.18;;;;;;;;;;4963794;28;20043;-67
2021/09/30 03:48:50;;;;;;;41.93;16.27;;;;;;;;;;4964031;28;20050;-67
2021/09/30 03:51:26;;;;;;;38.65;15.90;;;;;;;;;;4960888;28;20334;-67
2021/09/30 03:54:00;;;;;;;32.08;14.20;;;;;;;;;;4960335;28;20083;-68
2021/09/30 03:56:47;;;;;;;33.78;15.07;;;;;;;;;;4961078;28;20133;-69
2021/09/30 03:59:20;;;;;;;35.58;15.90;;;;;;;;;;4965103;28;20135;-67
2021/09/30 04:01:57;;;;;;;39.90;15.35;;;;;;;;;;4955862;28;20078;-70
2021/09/30 04:04:26;;;;;;;42.25;15.88;;;;;;;;;;4964711;28;20039;-67
2021/09/30 04:06:54;;;;;;;41.45;15.43;;;;;;;;;;4959181;28;20043;-68
2021/09/30 04:09:26;;;;;;;35.70;15.85;;;;;;;;;;4961591;28;20133;-68
2021/09/30 04:11:57;;;;;;;30.75;14.90;;;;;;;;;;4963212;28;20099;-67
2021/09/30 04:14:23;;;;;;;37.42;16.42;;;;;;;;;;4957451;28;20138;-68
2021/09/30 04:16:50;;;;;;;39.47;16.33;;;;;;;;;;4964753;28;20168;-68
2021/09/30 04:19:21;;;;;;;47.85;17.00;;;;;;;;;;4961339;28;20078;-68
2021/09/30 04:21:49;;;;;;;39.00;16.17;;;;;;;;;;4963703;28;20182;-68
2021/09/30 04:24:16;;;;;;;43.08;16.73;;;;;;;;;;4959794;28;21219;-68
2021/09/30 04:26:42;;;;;;;31.10;15.68;;;;;;;;;;4965741;28;20101;-68
2021/09/30 04:29:11;;;;;;;40.13;16.45;;;;;;;;;;4965704;28;20061;-68
2021/09/30 04:31:38;;;;;;;34.85;16.85;;;;;;;;;;4966097;28;20047;-68
2021/09/30 04:34:05;;;;;;;;;;;;;;;;;;4965002;28;20518;-67
2021/09/30 04:36:32;;;;;;;28.40;15.82;;;;;;;;;;4965959;28;19965;-68
2021/09/30 04:38:58;;;;;;;32.85;15.88;;;;;;;;;;4963140;28;20079;-67
2021/09/30 04:41:25;;;;;;;32.40;15.80;;;;;;;;;;4963115;28;20130;-68
2021/09/30 04:43:51;;;;;;;33.55;16.33;;;;;;;;;;4964014;28;20142;-66
2021/09/30 04:46:20;;;;;;;30.73;15.95;;;;;;;;;;4964962;28;20134;-65
2021/09/30 04:48:47;;;;;;;35.78;16.20;;;;;;;;;;4966161;28;20078;-65
2021/09/30 04:51:14;;;;;;;33.95;16.55;;;;;;;;;;4966564;28;20137;-65
2021/09/30 04:53:41;;;;;;;34.67;16.07;;;;;;;;;;4964544;28;20086;-65
2021/09/30 04:56:10;;;;;;;35.08;15.77;;;;;;;;;;4964624;28;20869;-65
2021/09/30 04:58:36;;;;;;;42.55;16.52;;;;;;;;;;4962524;28;20051;-65
2021/09/30 05:01:03;;;;;;;39.95;16.02;;;;;;;;;;4968672;28;20266;-65
2021/09/30 05:03:31;;;;;;;47.90;16.45;;;;;;;;;;4963597;28;20503;-65
2021/09/30 05:05:57;;;;;;;34.58;15.65;;;;;;;;;;4960282;28;20093;-65
2021/09/30 05:08:24;;;;;;;36.92;16.73;;;;;;;;;;4964197;28;20082;-65
2021/09/30 05:10:51;;;;;;;35.80;16.55;;;;;;;;;;4964192;28;20133;-65
2021/09/30 05:13:36;;;;;;;40.78;16.70;;;;;;;;;;4962846;28;20097;-65
2021/09/30 05:16:04;;;;;;;39.67;17.60;;;;;;;;;;4967350;28;20451;-65
2021/09/30 05:18:30;;;;;;;28.58;15.90;;;;;;;;;;4964651;28;20058;-65
2021/09/30 05:20:58;;;;;;;38.67;17.35;;;;;;;;;;4963666;28;20132;-65
2021/09/30 05:23:24;;;;;;;32.35;16.30;;;;;;;;;;4959134;28;20146;-65
2021/09/30 05:25:51;;;;;;;33.47;16.15;;;;;;;;;;4961610;28;20130;-65
2021/09/30 05:28:17;;;;;;;42.05;16.98;;;;;;;;;;4965667;28;20079;-65
2021/09/30 05:30:44;;;;;;;37.38;16.80;;;;;;;;;;4965861;28;20048;-65
2021/09/30 05:33:10;;;;;;;35.55;17.77;;;;;;;;;;4963279;28;20107;-66
2021/09/30 05:35:37;;;;;;;37.88;17.65;;;;;;;;;;4964872;28;20090;-66
2021/09/30 05:38:03;;;;;;;44.43;17.77;;;;;;;;;;4966048;28;20550;-65
2021/09/30 05:40:31;;;;;;;43.78;18.05;;;;;;;;;;4963373;28;20134;-65
2021/09/30 05:42:59;;;;;;;38.95;18.17;;;;;;;;;;4966213;28;20051;-67
2021/09/30 05:45:26;;;;;;;46.25;18.90;;;;;;;;;;4964162;28;20050;-68
2021/09/30 05:47:53;;;;;;;43.20;18.15;;;;;;;;;;4962703;28;20051;-67
2021/09/30 05:50:19;;;;;;;43.70;18.02;;;;;;;;;;4970806;28;20080;-68
2021/09/30 05:52:46;;;;;;;44.87;18.97;;;;;;;;;;4965237;28;20094;-68
2021/09/30 05:55:13;;;;;;;40.80;17.88;;;;;;;;;;4965380;28;20314;-68
2021/09/30 05:57:39;;;;;;;40.92;18.67;;;;;;;;;;4968141;28;20097;-68
2021/09/30 06:00:28;;;;;;;43.83;18.75;;;;;;;;;;4961901;28;20130;-68
2021/09/30 06:11:34;;;;;;;41.28;19.10;;;;;;;;;;4962086;28;20074;-68
2021/09/30 06:14:09;;;;;;;41.58;17.88;;;;;;;;;;4961776;28;20053;-68
2021/09/30 06:16:38;;;;;;;40.05;17.67;;;;;;;;;;4966600;28;20561;-68
2021/09/30 06:19:24;;;;;;;40.35;17.42;;;;;;;;;;4961599;28;20052;-68
2021/09/30 06:21:52;;;;;;;46.08;19.00;;;;;;;;;;4959078;28;20051;-68
2021/09/30 06:24:20;;;;;;;54.17;20.40;;;;;;;;;;4963803;28;20056;-68
2021/09/30 06:26:47;;;;;;;46.20;19.27;;;;;;;;;;4959017;28;20482;-68
2021/09/30 06:29:13;;;;;;;51.60;20.98;;;;;;;;;;4960996;28;20047;-68
2021/09/30 06:31:40;;;;;;;47.55;20.77;;;;;;;;;;4966121;28;20142;-68
2021/09/30 06:34:07;;;;;;;45.33;20.17;;;;;;;;;;4956978;28;20059;-68
2021/09/30 06:36:34;;;;;;;38.70;18.73;;;;;;;;;;4963101;28;20147;-68
2021/09/30 06:39:00;;;;;;;40.47;20.98;;;;;;;;;;4961908;28;20422;-68
2021/09/30 06:41:27;;;;;;;51.47;20.73;;;;;;;;;;4965398;28;20086;-69
2021/09/30 06:44:14;;;;;;;42.42;20.05;;;;;;;;;;4963300;28;20052;-68
2021/09/30 06:46:41;;;;;;;41.53;21.83;;;;;;;;;;4962662;28;20497;-68
2021/09/30 06:49:07;;;;;;;58.40;21.33;;;;;;;;;;4964309;28;20059;-68
2021/09/30 06:51:35;;;;;;;45.35;20.58;;;;;;;;;;4962934;28;20054;-68
2021/09/30 06:54:02;;;;;;;;;;;;;;;;;;4960546;28;20042;-68
2021/09/30 06:56:31;;;;;;;43.15;21.40;;;;;;;;;;4961476;28;19930;-68
2021/09/30 06:59:05;;;;;;;51.22;21.40;;;;;;;;;;4961304;28;20141;-68
2021/09/30 07:01:33;;;;;;;40.40;20.52;;;;;;;;;;4966058;28;20065;-68
2021/09/30 07:04:03;;;;;;;43.88;20.25;;;;;;;;;;4967061;28;20142;-68
2021/09/30 07:06:29;;;;;;;54.08;21.23;;;;;;;;;;4964727;28;20074;-68
2021/09/30 07:08:56;;;;;;;47.30;21.65;;;;;;;;;;4965406;28;20490;-67
2021/09/30 07:11:22;;;;;;;47.53;21.08;;;;;;;;;;4962503;28;20133;-67
2021/09/30 07:13:49;;;;;;;41.70;20.88;;;;;;;;;;4962012;28;20062;-68
2021/09/30 07:16:16;;;;;;;48.72;21.45;;;;;;;;;;4965512;28;20048;-68
2021/09/30 07:18:42;;;;;;;39.97;20.33;;;;;;;;;;4962811;28;20097;-68
2021/09/30 07:21:09;;;;;;;37.15;19.98;;;;;;;;;;4961567;28;20134;-68
2021/09/30 07:23:36;;;;;;;46.10;21.15;;;;;;;;;;4962727;28;20090;-68
2021/09/30 07:26:03;;;;;;;44.25;21.23;;;;;;;;;;4962449;28;20138;-68
2021/09/30 07:28:29;;;;;;;46.97;21.02;;;;;;;;;;4965618;28;20074;-68
2021/09/30 07:30:56;;;;;;;48.58;21.17;;;;;;;;;;4965685;28;20082;-68
2021/09/30 07:33:24;;;;;;;55.28;21.67;;;;;;;;;;4965292;28;20134;-65
2021/09/30 07:35:51;;;;;;;49.50;21.45;;;;;;;;;;4956630;28;20089;-65
2021/09/30 07:38:19;;;;;;;;;;;;;;;;;;4962687;28;20083;-65
2021/09/30 07:40:45;;;;;;;38.40;20.23;;;;;;;;;;4965095;28;19969;-65
2021/09/30 07:43:11;;;;;;;43.08;19.90;;;;;;;;;;4961637;28;20133;-65
2021/09/30 07:45:38;;;;;;;42.55;19.90;;;;;;;;;;4961473;28;20137;-65
2021/09/30 07:48:05;;;;;;;34.95;19.23;;;;;;;;;;4962568;28;20047;-65
2021/09/30 07:50:31;;;;;;;50.05;19.95;;;;;;;;;;4960799;28;20083;-65
2021/09/30 07:52:58;;;;;;;36.40;17.13;;;;;;;;;;4959992;28;20134;-65
2021/09/30 07:55:25;;;;;;;40.90;18.52;;;;;;;;;;4960350;28;20150;-65
2021/09/30 07:57:51;;;;;;;33.13;18.33;;;;;;;;;;4959835;28;20051;-65
2021/09/30 08:00:18;;;;;;;34.90;16.07;;;;;;;;;;4961286;28;20086;-65
2021/09/30 08:02:45;;;;;;;39.13;17.73;;;;;;;;;;4958394;28;20354;-65
2021/09/30 08:05:11;;;;;;;38.33;17.53;;;;;;;;;;4963177;28;20055;-65
2021/09/30 08:07:38;;;;;;;40.03;17.92;;;;;;;;;;4962461;28;20279;-65
2021/09/30 08:10:05;;;;;;;38.42;17.52;;;;;;;;;;4962672;28;20525;-65
2021/09/30 08:12:31;;;;;;;39.77;17.53;;;;;;;;;;4963602;28;20062;-65
2021/09/30 08:14:58;;;;;;;35.05;16.77;;;;;;;;;;4962376;28;20078;-65
2021/09/30 08:17:24;;;;;;;34.50;17.63;;;;;;;;;;4962854;28;20078;-65
2021/09/30 08:19:51;;;;;;;39.88;17.83;;;;;;;;;;4965404;28;20139;-65
2021/09/30 08:22:17;;;;;;;31.77;17.02;;;;;;;;;;4965408;28;20148;-65
2021/09/30 08:24:44;;;;;;;31.20;17.05;;;;;;;;;;4968171;28;20142;-65
2021/09/30 08:27:10;;;;;;;37.20;16.88;;;;;;;;;;4966117;28;20081;-65
2021/09/30 08:29:38;;;;;;;31.20;16.52;;;;;;;;;;4962583;28;20055;-65
2021/09/30 08:32:05;;;;;;;35.50;17.35;;;;;;;;;;4970058;28;20086;-66
2021/09/30 08:34:32;;;;;;;30.77;13.75;;;;;;;;;;4963596;28;20509;-66
2021/09/30 08:36:58;;;;;;;36.57;16.10;;;;;;;;;;4970997;28;20443;-66
2021/09/30 08:39:25;;;;;;;29.80;15.52;;;;;;;;;;4960520;28;20074;-67
2021/09/30 08:41:53;;;;;;;30.05;13.15;;;;;;;;;;4967078;28;20059;-66
2021/09/30 08:44:19;;;;;;;19.05;11.45;;;;;;;;;;4968423;28;20495;-66
2021/09/30 08:46:46;;;;;;;31.15;10.68;;;;;;;;;;4966487;28;20207;-66
2021/09/30 08:49:12;;;;;;;16.83;10.18;;;;;;;;;;4971480;28;20410;-66
2021/09/30 08:51:39;;;;;;;19.52;10.88;;;;;;;;;;4965590;28;20079;-65
2021/09/30 08:54:06;;;;;;;20.50;10.52;;;;;;;;;;4971599;28;20138;-65
2021/09/30 08:56:33;;;;;;;20.98;10.93;;;;;;;;;;4971233;28;20050;-65
2021/09/30 08:59:13;;;;;;;16.20;10.27;;;;;;;;;;4961153;28;20578;-65
2021/09/30 09:01:43;;;;;;;15.60;9.48;;;;;;;;;;4962101;28;20138;-65
2021/09/30 09:04:17;;;;;;;18.42;9.93;;;;;;;;;;4963904;28;20061;-65
2021/09/30 09:06:44;;;;;;;17.00;8.23;;;;;;;;;;4963968;28;20134;-65
2021/09/30 09:09:22;;;;;;;16.08;8.50;;;;;;;;;;4968242;28;20047;-65
2021/09/30 09:11:53;;;;;;;15.60;8.15;;;;;;;;;;4966821;28;20490;-65
2021/09/30 09:14:39;;;;;;;15.60;8.30;;;;;;;;;;4964855;28;20489;-64
2021/09/30 09:17:11;;;;;;;14.50;5.72;;;;;;;;;;4967448;28;20082;-65
2021/09/30 09:19:42;;;;;;;14.27;5.60;;;;;;;;;;4964763;28;20690;-65
2021/09/30 09:22:17;;;;;;;8.38;3.78;;;;;;;;;;4963796;28;20495;-65
2021/09/30 09:24:54;;;;;;;5.50;2.60;;;;;;;;;;4965511;28;20145;-65
2021/09/30 09:27:21;;;;;;;2.92;1.90;;;;;;;;;;4965911;28;20125;-65
2021/09/30 09:29:47;;;;;;;6.93;1.90;;;;;;;;;;4968455;28;20566;-65
2021/09/30 09:32:14;;;;;;;6.63;2.55;;;;;;;;;;4972866;28;20129;-65
2021/09/30 09:34:41;;;;;;;3.50;1.77;;;;;;;;;;4967223;28;20054;-65
2021/09/30 09:37:38;;;;;;;2.72;1.88;;;;;;;;;;4966839;28;20055;-65
2021/09/30 09:40:14;;;;;;;4.88;1.55;;;;;;;;;;4965253;28;20085;-65
2021/09/30 09:42:41;;;;;;;3.85;1.40;;;;;;;;;;4965927;28;20083;-65
2021/09/30 09:45:10;;;;;;;2.42;1.23;;;;;;;;;;4965334;28;20055;-65
2021/09/30 09:47:38;;;;;;;2.13;1.40;;;;;;;;;;4965618;28;20051;-65
2021/09/30 09:50:07;;;;;;;2.53;1.20;;;;;;;;;;4965993;28;20078;-65
2021/09/30 09:52:41;;;;;;;1.92;0.85;;;;;;;;;;4965356;28;20074;-65
2021/09/30 09:55:24;;;;;;;2.60;1.15;;;;;;;;;;4968391;28;20131;-65
2021/09/30 09:58:11;;;;;;;2.30;0.88;;;;;;;;;;4968518;28;20130;-65
2021/09/30 10:00:38;;;;;;;1.45;0.75;;;;;;;;;;4962313;28;20074;-65
2021/09/30 10:03:12;;;;;;;3.03;0.88;;;;;;;;;;4966065;28;20045;-65
2021/09/30 10:05:39;;;;;;;1.65;0.80;;;;;;;;;;4959973;28;20664;-65
2021/09/30 10:08:06;;;;;;;5.57;0.60;;;;;;;;;;4961515;28;20118;-64
2021/09/30 10:10:33;;;;;;;0.88;0.45;;;;;;;;;;4960048;28;20093;-65
2021/09/30 10:13:00;;;;;;;0.60;0.52;;;;;;;;;;4966484;28;20057;-64
2021/09/30 10:15:27;;;;;;;3.40;0.70;;;;;;;;;;4958515;28;20051;-64
2021/09/30 10:17:54;;;;;;;1.40;0.77;;;;;;;;;;4964808;28;20171;-64
2021/09/30 10:20:21;;;;;;;2.03;0.90;;;;;;;;;;4963662;28;20129;-64
2021/09/30 10:22:51;;;;;;;5.25;0.85;;;;;;;;;;4964961;28;20082;-64
2021/09/30 10:25:18;;;;;;;1.58;0.70;;;;;;;;;;4964658;28;20147;-64
2021/09/30 10:27:45;;;;;;;1.88;0.90;;;;;;;;;;4958819;28;20576;-64
2021/09/30 10:30:30;;;;;;;1.55;0.65;;;;;;;;;;4959826;28;20051;-64
2021/09/30 10:32:58;;;;;;;0.70;0.52;;;;;;;;;;4961617;28;20043;-64
2021/09/30 10:35:35;;;;;;;1.52;0.60;;;;;;;;;;4966500;28;20158;-64
2021/09/30 10:38:14;;;;;;;1.98;0.60;;;;;;;;;;4965153;28;20134;-64
2021/09/30 10:40:59;;;;;;;2.67;0.77;;;;;;;;;;4963213;28;20090;-64
2021/09/30 10:43:31;;;;;;;2.20;0.70;;;;;;;;;;4960904;28;20055;-64
2021/09/30 10:45:58;;;;;;;2.13;0.70;;;;;;;;;;4962099;28;20046;-64
2021/09/30 10:48:24;;;;;;;2.45;0.88;;;;;;;;;;4962056;28;20130;-64
2021/09/30 10:50:58;;;;;;;2.73;0.70;;;;;;;;;;4964228;28;20046;-64
2021/09/30 10:53:57;;;;;;;1.33;0.90;;;;;;;;;;4962335;28;20129;-64
2021/09/30 10:56:26;;;;;;;1.27;0.75;;;;;;;;;;4965170;28;20082;-64
2021/09/30 10:58:58;;;;;;;0.98;0.40;;;;;;;;;;4967957;28;20059;-64
2021/09/30 11:01:25;;;;;;;1.73;0.65;;;;;;;;;;4965525;28;20126;-64
2021/09/30 11:03:58;;;;;;;2.13;0.60;;;;;;;;;;4963590;28;20138;-63
2021/09/30 11:06:24;;;;;;;0.85;0.55;;;;;;;;;;4965707;28;20461;-63
2021/09/30 11:09:14;;;;;;;4.28;0.82;;;;;;;;;;4965867;28;20086;-63
2021/09/30 11:11:42;;;;;;;2.72;0.85;;;;;;;;;;4967147;28;20206;-63
2021/09/30 11:14:09;;;;;;;0.82;0.50;;;;;;;;;;4968382;28;20582;-63
2021/09/30 11:16:36;;;;;;;1.45;0.73;;;;;;;;;;4968084;28;20138;-63
2021/09/30 11:19:03;;;;;;;2.20;0.70;;;;;;;;;;4963371;28;20502;-63
2021/09/30 11:24:10;;;;;;;2.30;0.60;;;;;;;;;;4957948;28;20081;-63
2021/09/30 11:26:49;;;;;;;1.52;0.70;;;;;;;;;;4964279;28;20635;-63
2021/09/30 11:29:21;;;;;;;0.75;0.60;;;;;;;;;;4965389;28;20126;-63
2021/09/30 11:31:48;;;;;;;4.57;0.50;;;;;;;;;;4962416;28;20054;-63
2021/09/30 11:34:18;;;;;;;0.85;0.65;;;;;;;;;;4959791;28;20463;-63
2021/09/30 11:36:45;;;;;;;1.92;0.50;;;;;;;;;;4961246;28;20090;-63
2021/09/30 11:39:13;;;;;;;1.20;0.65;;;;;;;;;;4962523;28;20130;-63
2021/09/30 11:41:40;;;;;;;2.78;0.45;;;;;;;;;;4961814;28;20133;-63
2021/09/30 11:44:07;;;;;;;2.80;0.57;;;;;;;;;;4966081;28;20505;-63
2021/09/30 11:46:34;;;;;;;1.25;0.60;;;;;;;;;;4959428;28;20125;-62
2021/09/30 11:49:01;;;;;;;;;;;;;;;;;;4964524;28;20055;-63
2021/09/30 11:51:29;;;;;;;0.85;0.60;;;;;;;;;;4961734;28;19932;-63
2021/09/30 11:53:55;;;;;;;1.45;0.50;;;;;;;;;;4969623;28;20566;-63
2021/09/30 11:56:21;;;;;;;1.95;0.68;;;;;;;;;;4968932;28;20078;-63
2021/09/30 11:58:58;;;;;;;0.60;0.60;;;;;;;;;;4969868;28;20053;-63
2021/09/30 12:01:35;;;;;;;1.70;0.90;;;;;;;;;;4973199;28;20137;-63
2021/09/30 12:04:03;;;;;;;1.83;0.50;;;;;;;;;;4969494;28;20270;-63
2021/09/30 12:06:47;;;;;;;1.33;0.55;;;;;;;;;;4968716;28;20100;-62
2021/09/30 12:09:14;;;;;;;1.85;0.47;;;;;;;;;;4971624;28;20142;-62
2021/09/30 12:11:48;;;;;;;2.08;0.65;;;;;;;;;;4972680;28;20101;-63
2021/09/30 12:14:15;;;;;;;7.93;0.80;;;;;;;;;;4973926;28;20130;-62
2021/09/30 12:17:02;;;;;;;1.75;0.55;;;;;;;;;;4965344;28;20502;-63
2021/09/30 12:19:29;;;;;;;2.10;0.47;;;;;;;;;;4970440;28;20050;-62
2021/09/30 12:21:56;;;;;;;0.80;0.55;;;;;;;;;;4973280;28;20126;-62
2021/09/30 12:24:27;;;;;;;2.38;0.50;;;;;;;;;;4971826;28;20137;-62
2021/09/30 12:26:53;;;;;;;0.73;0.70;;;;;;;;;;4970360;28;20577;-62
2021/09/30 12:29:20;;;;;;;2.63;0.63;;;;;;;;;;4969909;28;20126;-62
2021/09/30 12:32:01;;;;;;;4.20;1.00;;;;;;;;;;4965283;28;20337;-62
2021/09/30 12:34:28;;;;;;;2.83;0.70;;;;;;;;;;4972819;28;20381;-62
2021/09/30 12:36:54;;;;;;;4.68;0.90;;;;;;;;;;4968588;28;20129;-62
2021/09/30 12:39:30;;;;;;;1.95;0.60;;;;;;;;;;4970005;28;20125;-62
2021/09/30 12:42:30;;;;;;;1.02;0.50;;;;;;;;;;4972550;28;20422;-62
2021/09/30 12:44:56;;;;;;;3.75;0.60;;;;;;;;;;4948203;28;20055;-62
2021/09/30 12:47:24;;;;;;;;;;;;;;;;;;4968222;28;20101;-62
2021/09/30 12:49:57;;;;;;;1.65;0.60;;;;;;;;;;4970839;28;20025;-62
2021/09/30 12:52:23;;;;;;;1.40;0.70;;;;;;;;;;4968909;28;20142;-62
2021/09/30 12:54:50;;;;;;;2.83;0.90;;;;;;;;;;4968644;28;20082;-62
2021/09/30 12:57:17;;;;;;;1.10;0.50;;;;;;;;;;4967171;28;20082;-62
2021/09/30 13:00:01;;;;;;;7.10;0.80;;;;;;;;;;4970542;28;20075;-62
2021/09/30 13:02:28;;;;;;;3.33;0.50;;;;;;;;;;4970742;28;20081;-62
2021/09/30 13:04:54;;;;;;;3.00;0.93;;;;;;;;;;4964993;28;20142;-63
2021/09/30 13:07:21;;;;;;;2.63;0.73;;;;;;;;;;4967880;28;20821;-62
2021/09/30 13:10:00;;;;;;;2.58;1.20;;;;;;;;;;4965735;28;20467;-62
2021/09/30 13:12:26;;;;;;;0.98;0.63;;;;;;;;;;4967227;28;20078;-62
2021/09/30 13:14:54;;;;;;;1.37;0.87;;;;;;;;;;4971964;28;20142;-63
2021/09/30 13:17:21;;;;;;;4.90;0.70;;;;;;;;;;4969219;28;20314;-62
2021/09/30 13:19:54;;;;;;;2.85;0.82;;;;;;;;;;4962079;28;20139;-62
2021/09/30 13:22:22;;;;;;;4.30;1.10;;;;;;;;;;4969152;28;20134;-62
2021/09/30 13:24:53;;;;;;;3.45;0.68;;;;;;;;;;4968480;28;21004;-62
2021/09/30 13:27:23;;;;;;;3.42;0.70;;;;;;;;;;4967898;28;20081;-62
2021/09/30 13:29:50;;;;;;;1.80;0.80;;;;;;;;;;4962132;28;20134;-62
2021/09/30 13:32:17;;;;;;;3.42;0.88;;;;;;;;;;4963764;28;20154;-62
2021/09/30 13:34:44;;;;;;;1.67;0.70;;;;;;;;;;4961950;28;20145;-62
2021/09/30 13:37:12;;;;;;;1.17;0.60;;;;;;;;;;4966667;28;20550;-62
2021/09/30 13:39:38;;;;;;;3.03;0.75;;;;;;;;;;4962347;28;20149;-62
2021/09/30 13:42:05;;;;;;;1.83;1.00;;;;;;;;;;4964190;28;20047;-62
2021/09/30 13:44:32;;;;;;;2.92;0.98;;;;;;;;;;4961426;28;20451;-62
2021/09/30 13:46:58;;;;;;;2.67;0.95;;;;;;;;;;4961767;28;20086;-61
2021/09/30 13:49:25;;;;;;;2.03;0.77;;;;;;;;;;4962618;28;20046;-62
2021/09/30 13:51:52;;;;;;;5.88;1.33;;;;;;;;;;4966911;28;20082;-62
2021/09/30 13:54:18;;;;;;;3.60;0.65;;;;;;;;;;4968924;28;20082;-62
2021/09/30 13:56:45;;;;;;;3.20;1.00;;;;;;;;;;4961623;28;20463;-62
2021/09/30 13:59:12;;;;;;;3.85;1.02;;;;;;;;;;4962551;28;20142;-62
2021/09/30 14:01:58;;;;;;;3.95;0.80;;;;;;;;;;4963648;28;20047;-62
2021/09/30 14:04:25;;;;;;;2.40;0.60;;;;;;;;;;4965115;28;20059;-62
2021/09/30 14:06:55;;;;;;;4.38;0.98;;;;;;;;;;4963100;28;20086;-62
2021/09/30 14:09:22;;;;;;;2.50;0.60;;;;;;;;;;4966320;28;20482;-62
2021/09/30 14:11:49;;;;;;;3.78;0.90;;;;;;;;;;4967421;28;20491;-62
2021/09/30 14:14:16;;;;;;;3.15;0.93;;;;;;;;;;4970144;28;20109;-62
2021/09/30 14:16:44;;;;;;;2.45;0.60;;;;;;;;;;4962392;28;20134;-62
2021/09/30 14:19:11;;;;;;;4.43;1.20;;;;;;;;;;4964737;28;20086;-62
2021/09/30 14:21:37;;;;;;;3.72;0.90;;;;;;;;;;4967565;28;20127;-61
2021/09/30 14:24:04;;;;;;;3.17;0.80;;;;;;;;;;4963668;28;20091;-62
2021/09/30 14:26:30;;;;;;;4.32;0.95;;;;;;;;;;4966368;28;20130;-62
2021/09/30 14:28:57;;;;;;;1.05;0.73;;;;;;;;;;4965901;28;20577;-62
2021/09/30 14:31:23;;;;;;;2.85;0.90;;;;;;;;;;4967716;28;20582;-62
2021/09/30 14:33:50;;;;;;;1.48;0.80;;;;;;;;;;4964738;28;20137;-62
2021/09/30 14:36:16;;;;;;;2.95;1.30;;;;;;;;;;4963230;28;20142;-62
2021/09/30 14:38:43;;;;;;;3.08;0.70;;;;;;;;;;4958070;28;20125;-62
2021/09/30 14:41:10;;;;;;;2.53;0.90;;;;;;;;;;4962840;28;20143;-62
2021/09/30 14:43:37;;;;;;;3.13;1.05;;;;;;;;;;4968679;28;20126;-62
2021/09/30 14:46:04;;;;;;;2.30;0.70;;;;;;;;;;4966801;28;20165;-62
2021/09/30 14:48:32;;;;;;;2.80;0.70;;;;;;;;;;4965909;28;20105;-62
2021/09/30 14:50:59;;;;;;;3.00;0.70;;;;;;;;;;4959661;28;20058;-62
2021/09/30 14:53:25;;;;;;;1.00;0.73;;;;;;;;;;4965492;28;20467;-62
2021/09/30 14:55:52;;;;;;;2.90;0.75;;;;;;;;;;4962795;28;20134;-62
2021/09/30 14:58:18;;;;;;;2.92;0.73;;;;;;;;;;4961678;28;20451;-62
2021/09/30 15:00:45;;;;;;;3.55;0.77;;;;;;;;;;4965193;28;20055;-62
2021/09/30 15:03:11;;;;;;;1.90;0.77;;;;;;;;;;4961595;28;20051;-62
2021/09/30 15:05:38;;;;;;;2.33;0.73;;;;;;;;;;4968766;28;20177;-62
2021/09/30 15:08:05;;;;;;;1.83;0.83;;;;;;;;;;4958320;28;20127;-62
2021/09/30 15:10:31;;;;;;;3.97;0.83;;;;;;;;;;4963292;28;20141;-62
2021/09/30 15:12:58;;;;;;;1.63;0.77;;;;;;;;;;4965346;28;20127;-62
2021/09/30 15:15:25;;;;;;;1.17;0.60;;;;;;;;;;4962764;28;20040;-62
2021/09/30 15:18:01;;;;;;;1.45;0.63;;;;;;;;;;4963399;28;20704;-62
2021/09/30 15:23:03;;;;;;;1.55;0.70;;;;;;;;;;4960538;28;20090;-62
2021/09/30 15:25:30;;;;;;;4.53;0.85;;;;;;;;;;4964780;28;20095;-62
2021/09/30 15:27:56;;;;;;;2.30;0.80;;;;;;;;;;4963520;28;20090;-62
2021/09/30 15:30:23;;;;;;;3.33;0.65;;;;;;;;;;4965751;28;20393;-62
2021/09/30 15:32:51;;;;;;;2.38;0.90;;;;;;;;;;4968158;28;20130;-62
2021/09/30 15:35:17;;;;;;;2.05;0.90;;;;;;;;;;4965487;28;20146;-62
2021/09/30 15:37:44;;;;;;;4.35;0.80;;;;;;;;;;4961155;28;20050;-61
2021/09/30 15:40:11;;;;;;;1.20;0.65;;;;;;;;;;4966934;28;20089;-62
2021/09/30 15:42:37;;;;;;;4.05;1.08;;;;;;;;;;4962564;28;20086;-62
2021/09/30 15:45:04;;;;;;;1.38;0.50;;;;;;;;;;4964721;28;20079;-62
2021/09/30 15:47:31;;;;;;;3.67;0.65;;;;;;;;;;4960933;28;20185;-62
2021/09/30 15:49:57;;;;;;;1.25;0.43;;;;;;;;;;4968409;28;20139;-64
2021/09/30 15:52:24;;;;;;;3.23;0.83;;;;;;;;;;4962350;28;20097;-64
2021/09/30 15:54:50;;;;;;;2.70;0.43;;;;;;;;;;4959057;28;20130;-64
2021/09/30 15:57:18;;;;;;;1.10;0.57;;;;;;;;;;4956354;28;20486;-64
2021/09/30 15:59:45;;;;;;;1.45;0.82;;;;;;;;;;4954202;28;20079;-64
2021/09/30 16:02:11;;;;;;;5.97;1.30;;;;;;;;;;4963402;28;20082;-64
2021/09/30 16:04:38;;;;;;;4.95;1.25;;;;;;;;;;4966937;28;20588;-65
2021/09/30 16:07:05;;;;;;;2.28;1.15;;;;;;;;;;4963140;28;20169;-65
2021/09/30 16:09:31;;;;;;;7.32;1.27;;;;;;;;;;4962729;28;20086;-65
2021/09/30 16:11:58;;;;;;;1.35;0.70;;;;;;;;;;4963014;28;20055;-65
2021/09/30 16:14:29;;;;;;;4.35;1.45;;;;;;;;;;4962140;28;20105;-66
2021/09/30 16:16:57;;;;;;;2.25;1.08;;;;;;;;;;4960779;28;20145;-65
2021/09/30 16:19:25;;;;;;;3.17;1.20;;;;;;;;;;4964327;28;20454;-65
2021/09/30 16:21:52;;;;;;;3.83;1.00;;;;;;;;;;4962725;28;20086;-65
2021/09/30 16:24:18;;;;;;;4.93;1.35;;;;;;;;;;4961754;28;20219;-65
2021/09/30 16:26:45;;;;;;;5.15;1.90;;;;;;;;;;4962337;28;20078;-65
2021/09/30 16:29:12;;;;;;;5.55;1.50;;;;;;;;;;4961888;28;20510;-64
2021/09/30 16:31:39;;;;;;;4.18;1.38;;;;;;;;;;4962633;28;20078;-64
2021/09/30 16:34:06;;;;;;;2.30;1.30;;;;;;;;;;4963367;28;20059;-64
2021/09/30 16:36:32;;;;;;;3.37;1.40;;;;;;;;;;4961951;28;21849;-64
2021/09/30 16:39:00;;;;;;;4.22;1.50;;;;;;;;;;4963376;28;20333;-64
2021/09/30 16:41:26;;;;;;;7.80;1.75;;;;;;;;;;4965295;28;20217;-64
2021/09/30 16:43:53;;;;;;;4.13;1.40;;;;;;;;;;4961925;28;20603;-63
2021/09/30 16:46:20;;;;;;;7.05;1.30;;;;;;;;;;4967706;28;20162;-63
2021/09/30 16:48:50;;;;;;;7.35;1.42;;;;;;;;;;4968375;28;20051;-64
2021/09/30 16:51:17;;;;;;;4.30;1.20;;;;;;;;;;4964807;28;20157;-64
2021/09/30 16:53:44;;;;;;;3.55;1.38;;;;;;;;;;4966810;28;20308;-64
2021/09/30 16:56:10;;;;;;;1.98;1.13;;;;;;;;;;4971673;28;20137;-64
2021/09/30 16:58:37;;;;;;;4.00;1.15;;;;;;;;;;4962319;28;20093;-64
2021/09/30 17:01:05;;;;;;;2.58;1.38;;;;;;;;;;4963557;28;20591;-63
2021/09/30 17:03:34;;;;;;;4.17;1.43;;;;;;;;;;4962769;28;20532;-64
2021/09/30 17:06:03;;;;;;;7.03;1.60;;;;;;;;;;4963489;28;20466;-64
2021/09/30 17:08:30;;;;;;;5.35;1.30;;;;;;;;;;4965289;28;20463;-64
2021/09/30 17:10:58;;;;;;;3.83;1.45;;;;;;;;;;4966684;28;20154;-64
2021/09/30 17:13:26;;;;;;;1.73;1.38;;;;;;;;;;4961834;28;20098;-64
2021/09/30 17:15:57;;;;;;;6.60;1.85;;;;;;;;;;4967048;28;20162;-64
2021/09/30 17:18:25;;;;;;;3.38;1.27;;;;;;;;;;4962808;28;20121;-64
2021/09/30 17:20:52;;;;;;;2.58;1.30;;;;;;;;;;4962366;28;20090;-64
2021/09/30 17:23:18;;;;;;;6.07;1.60;;;;;;;;;;4965256;28;20089;-64
2021/09/30 17:25:47;;;;;;;2.30;1.35;;;;;;;;;;4965786;28;20467;-64
2021/09/30 17:28:14;;;;;;;3.97;1.35;;;;;;;;;;4967500;28;20075;-64
2021/09/30 17:30:41;;;;;;;2.97;1.43;;;;;;;;;;4965229;28;20050;-64
2021/09/30 17:33:08;;;;;;;2.72;1.65;;;;;;;;;;4963241;28;20486;-64